createdAt,value
2022-10-26T00:01:42.686Z,8.09
2022-10-26T00:11:46.312Z,8.32
2022-10-26T00:21:50.005Z,8.45
2022-10-26T00:31:53.636Z,8.66
2022-10-26T00:41:57.227Z,8.78
2022-10-26T00:52:00.881Z,9.06
2022-10-26T01:02:04.540Z,9.25
2022-10-26T01:12:08.097Z,9.27
2022-10-26T01:22:34.214Z,8.99
2022-10-26T01:32:47.165Z,8.75
2022-10-26T01:42:54.072Z,8.63
2022-10-26T01:52:57.660Z,8.54
2022-10-26T02:03:21.910Z,8.51
2022-10-26T02:13:30.412Z,8.44
2022-10-26T02:23:37.200Z,8.42
2022-10-26T02:33:44.731Z,8.38
2022-10-26T02:43:51.399Z,8.24
2022-10-26T02:54:21.771Z,7.91
2022-10-26T03:04:32.698Z,7.71
2022-10-26T03:14:36.367Z,7.63
2022-10-26T03:24:39.941Z,7.50
2022-10-26T03:34:43.696Z,7.18
2022-10-26T03:44:48.793Z,6.79
2022-10-26T03:54:52.977Z,6.56
2022-10-26T04:04:56.416Z,6.39
2022-10-26T04:15:00.020Z,6.26
2022-10-26T04:25:07.890Z,6.15
2022-10-26T04:35:14.607Z,6.02
2022-10-26T04:45:19.295Z,5.93
2022-10-26T04:55:22.876Z,5.73
2022-10-26T05:05:26.619Z,5.50
2022-10-26T05:15:31.418Z,5.45
2022-10-26T05:25:37.541Z,5.45
2022-10-26T05:35:42.297Z,5.46
2022-10-26T05:45:46.302Z,5.47
2022-10-26T05:55:50.674Z,5.37
2022-10-26T06:05:57.361Z,5.48
2022-10-26T06:16:16.339Z,5.55
2022-10-26T06:26:32.992Z,5.97
2022-10-26T06:36:39.425Z,6.35
2022-10-26T06:46:50.305Z,6.63
2022-10-26T06:56:54.423Z,6.96
2022-10-26T07:06:58.591Z,7.30
2022-10-26T07:17:02.977Z,7.59
2022-10-26T07:27:07.565Z,7.89
2022-10-26T07:37:11.032Z,8.35
2022-10-26T07:47:15.507Z,8.80
2022-10-26T07:57:19.784Z,9.22
2022-10-26T08:07:23.561Z,9.62
2022-10-26T08:17:28.758Z,10.02
2022-10-26T08:27:32.533Z,10.42
2022-10-26T08:37:36.704Z,10.82
2022-10-26T08:47:46.983Z,11.28
2022-10-26T08:57:53.911Z,11.90
2022-10-26T09:08:22.279Z,12.48
2022-10-26T09:18:25.773Z,13.02
2022-10-26T09:28:35.582Z,13.44
2022-10-26T09:38:47.105Z,13.83
2022-10-26T09:49:00.867Z,14.16
2022-10-26T09:59:06.826Z,14.49
2022-10-26T10:09:40.158Z,14.83
2022-10-26T10:19:44.562Z,15.26
2022-10-26T10:29:50.955Z,15.75
2022-10-26T10:40:07.381Z,16.20
2022-10-26T10:50:15.048Z,16.54
2022-10-26T11:00:21.137Z,16.80
2022-10-26T11:10:29.743Z,17.02
2022-10-26T11:20:37.228Z,17.05
2022-10-26T11:30:50.117Z,16.94
2022-10-26T11:41:14.545Z,17.12
2022-10-26T11:51:34.173Z,17.19
2022-10-26T12:01:37.978Z,17.26
2022-10-26T12:11:49.078Z,17.32
2022-10-26T12:21:54.342Z,17.42
2022-10-26T12:31:59.107Z,17.72
2022-10-26T12:42:08.879Z,17.76
2022-10-26T12:52:21.570Z,17.80
2022-10-26T13:02:59.717Z,17.76
2022-10-26T13:13:05.909Z,17.54
2022-10-26T13:23:40.293Z,17.62
2022-10-26T13:33:46.731Z,17.86
2022-10-26T13:43:52.775Z,18.01
2022-10-26T13:53:56.506Z,17.99
2022-10-26T14:04:00.176Z,17.87
2022-10-26T14:14:05.590Z,17.60
2022-10-26T14:24:27.527Z,17.27
2022-10-26T14:34:35.422Z,16.88
2022-10-26T14:44:39.298Z,16.49
2022-10-26T14:54:43.078Z,15.89
2022-10-26T15:05:03.004Z,15.27
2022-10-26T15:15:15.679Z,14.58
2022-10-26T15:25:28.257Z,13.94
2022-10-26T15:35:32.677Z,13.31
2022-10-26T15:45:48.270Z,12.62
2022-10-26T15:55:54.479Z,11.96
2022-10-26T16:06:03.535Z,11.43
2022-10-26T16:16:16.159Z,10.82
2022-10-26T16:26:20.338Z,10.32
2022-10-26T16:36:24.017Z,9.93
2022-10-26T16:46:27.977Z,9.58
2022-10-26T16:56:32.347Z,9.27
2022-10-26T17:06:36.844Z,8.97
2022-10-26T17:16:41.518Z,8.61
2022-10-26T17:26:49.128Z,8.37
2022-10-26T17:36:54.899Z,8.03
2022-10-26T17:46:59.056Z,7.79
2022-10-26T17:57:03.975Z,7.57
2022-10-26T18:07:09.360Z,7.27
2022-10-26T18:17:14.788Z,7.13
2022-10-26T18:27:21.396Z,6.91
2022-10-26T18:37:27.772Z,6.77
2022-10-26T18:47:34.167Z,6.73
2022-10-26T18:57:38.540Z,6.50
2022-10-26T19:07:44.672Z,6.29
2022-10-26T19:17:49.769Z,6.08
2022-10-26T19:27:56.280Z,5.96
2022-10-26T19:38:00.919Z,5.80
2022-10-26T19:48:07.296Z,5.79
2022-10-26T19:58:14.421Z,5.67
2022-10-26T20:08:21.595Z,5.65
2022-10-26T20:18:28.133Z,5.48
2022-10-26T20:28:34.746Z,5.34
2022-10-26T20:38:40.473Z,5.15
2022-10-26T20:48:44.845Z,5.09
2022-10-26T20:59:01.574Z,4.92
2022-10-26T21:09:05.081Z,4.76
2022-10-26T21:19:09.063Z,4.70
2022-10-26T21:29:13.475Z,4.57
2022-10-26T21:39:17.195Z,4.49
2022-10-26T21:49:21.075Z,4.42
2022-10-26T21:59:25.009Z,4.38
2022-10-26T22:09:28.720Z,4.44
2022-10-26T22:19:33.035Z,4.56
2022-10-26T22:29:36.559Z,4.63
2022-10-26T22:39:40.573Z,4.79
2022-10-26T22:49:44.297Z,4.91
2022-10-26T22:59:48.056Z,4.89
2022-10-26T23:09:51.937Z,4.99
2022-10-26T23:19:55.602Z,5.04
2022-10-26T23:29:59.479Z,5.23
2022-10-26T23:40:03.136Z,5.25
2022-10-26T23:50:07.514Z,5.26
